sensor_id;sensor_type;location;lat;lon;timestamp;P1;P2;P0
55549;PMS7003;41397;49.972;18.944;2022-09-24T00:02:06;67;63;41
55549;PMS7003;41397;49.972;18.944;2022-09-24T00:05:10;68;63;39
55549;PMS7003;41397;49.972;18.944;2022-09-24T00:08:13;66;61;40
55549;PMS7003;41397;49.972;18.944;2022-09-24T00:11:16;68;63;43
55549;PMS7003;41397;49.972;18.944;2022-09-24T00:14:21;74;64;40
55549;PMS7003;41397;49.972;18.944;2022-09-24T00:17:22;79;73;44
55549;PMS7003;41397;49.972;18.944;2022-09-24T00:20:23;75;74;38
55549;PMS7003;41397;49.972;18.944;2022-09-24T00:23:24;90;76;47
55549;PMS7003;41397;49.972;18.944;2022-09-24T00:26:26;87;74;42
55549;PMS7003;41397;49.972;18.944;2022-09-24T00:29:40;83;69;45
55549;PMS7003;41397;49.972;18.944;2022-09-24T00:32:41;75;64;38
55549;PMS7003;41397;49.972;18.944;2022-09-24T00:35:43;80;76;45
55549;PMS7003;41397;49.972;18.944;2022-09-24T00:38:47;84;78;46
55549;PMS7003;41397;49.972;18.944;2022-09-24T00:41:50;79;74;45
55549;PMS7003;41397;49.972;18.944;2022-09-24T00:44:52;76;73;43
55549;PMS7003;41397;49.972;18.944;2022-09-24T00:47:55;84;78;47
55549;PMS7003;41397;49.972;18.944;2022-09-24T00:50:59;83;78;43
55549;PMS7003;41397;49.972;18.944;2022-09-24T00:54:03;80;79;48
55549;PMS7003;41397;49.972;18.944;2022-09-24T00:57:08;77;75;42
55549;PMS7003;41397;49.972;18.944;2022-09-24T01:00:10;80;74;50
55549;PMS7003;41397;49.972;18.944;2022-09-24T01:03:17;79;72;43
55549;PMS7003;41397;49.972;18.944;2022-09-24T01:06:23;86;81;46
55549;PMS7003;41397;49.972;18.944;2022-09-24T01:09:25;90;85;50
55549;PMS7003;41397;49.972;18.944;2022-09-24T01:12:35;81;76;46
55549;PMS7003;41397;49.972;18.944;2022-09-24T01:15:50;92;86;52
55549;PMS7003;41397;49.972;18.944;2022-09-24T01:25:31;86;75;51
55549;PMS7003;41397;49.972;18.944;2022-09-24T01:31:59;85;81;46
55549;PMS7003;41397;49.972;18.944;2022-09-24T01:38:25;85;73;46
55549;PMS7003;41397;49.972;18.944;2022-09-24T01:41:30;86;75;44
55549;PMS7003;41397;49.972;18.944;2022-09-24T01:44:36;101;93;52
55549;PMS7003;41397;49.972;18.944;2022-09-24T01:47:43;81;72;48
55549;PMS7003;41397;49.972;18.944;2022-09-24T01:50:51;94;86;55
55549;PMS7003;41397;49.972;18.944;2022-09-24T01:54:01;109;85;50
55549;PMS7003;41397;49.972;18.944;2022-09-24T01:57:10;89;79;47
55549;PMS7003;41397;49.972;18.944;2022-09-24T02:00:16;87;81;55
55549;PMS7003;41397;49.972;18.944;2022-09-24T02:03:21;98;90;49
55549;PMS7003;41397;49.972;18.944;2022-09-24T02:06:30;106;92;55
55549;PMS7003;41397;49.972;18.944;2022-09-24T02:09:40;92;77;46
55549;PMS7003;41397;49.972;18.944;2022-09-24T02:12:45;77;73;46
55549;PMS7003;41397;49.972;18.944;2022-09-24T02:15:53;91;82;44
55549;PMS7003;41397;49.972;18.944;2022-09-24T02:19:05;81;78;44
55549;PMS7003;41397;49.972;18.944;2022-09-24T02:22:11;72;69;40
55549;PMS7003;41397;49.972;18.944;2022-09-24T02:25:15;87;79;44
55549;PMS7003;41397;49.972;18.944;2022-09-24T02:28:20;103;95;51
55549;PMS7003;41397;49.972;18.944;2022-09-24T02:31:26;113;91;49
55549;PMS7003;41397;49.972;18.944;2022-09-24T02:34:32;95;90;52
55549;PMS7003;41397;49.972;18.944;2022-09-24T02:37:42;83;76;43
55549;PMS7003;41397;49.972;18.944;2022-09-24T02:40:44;92;81;47
55549;PMS7003;41397;49.972;18.944;2022-09-24T02:43:45;79;77;42
55549;PMS7003;41397;49.972;18.944;2022-09-24T02:46:47;82;80;49
55549;PMS7003;41397;49.972;18.944;2022-09-24T02:49:50;83;76;41
55549;PMS7003;41397;49.972;18.944;2022-09-24T02:52:51;89;73;43
55549;PMS7003;41397;49.972;18.944;2022-09-24T02:55:52;66;62;36
55549;PMS7003;41397;49.972;18.944;2022-09-24T02:58:53;73;71;40
55549;PMS7003;41397;49.972;18.944;2022-09-24T03:01:55;67;65;39
55549;PMS7003;41397;49.972;18.944;2022-09-24T03:04:56;73;66;44
55549;PMS7003;41397;49.972;18.944;2022-09-24T03:07:57;67;60;41
55549;PMS7003;41397;49.972;18.944;2022-09-24T03:10:59;77;64;40
55549;PMS7003;41397;49.972;18.944;2022-09-24T03:14:01;73;71;40
55549;PMS7003;41397;49.972;18.944;2022-09-24T03:17:03;73;63;41
55549;PMS7003;41397;49.972;18.944;2022-09-24T03:20:04;75;67;40
55549;PMS7003;41397;49.972;18.944;2022-09-24T03:23:06;64;62;38
55549;PMS7003;41397;49.972;18.944;2022-09-24T03:26:10;60;53;34
55549;PMS7003;41397;49.972;18.944;2022-09-24T03:29:12;62;57;36
55549;PMS7003;41397;49.972;18.944;2022-09-24T03:32:13;59;52;31
55549;PMS7003;41397;49.972;18.944;2022-09-24T03:35:14;71;63;36
55549;PMS7003;41397;49.972;18.944;2022-09-24T03:38:18;59;51;29
55549;PMS7003;41397;49.972;18.944;2022-09-24T03:41:19;61;50;34
55549;PMS7003;41397;49.972;18.944;2022-09-24T03:44:22;60;54;33
55549;PMS7003;41397;49.972;18.944;2022-09-24T03:47:23;62;55;32
55549;PMS7003;41397;49.972;18.944;2022-09-24T03:50:26;63;56;36
55549;PMS7003;41397;49.972;18.944;2022-09-24T03:53:27;64;60;38
55549;PMS7003;41397;49.972;18.944;2022-09-24T03:56:28;60;53;36
55549;PMS7003;41397;49.972;18.944;2022-09-24T03:59:29;57;46;30
55549;PMS7003;41397;49.972;18.944;2022-09-24T04:02:34;61;54;28
55549;PMS7003;41397;49.972;18.944;2022-09-24T04:05:36;58;46;30
55549;PMS7003;41397;49.972;18.944;2022-09-24T04:08:37;54;46;31
55549;PMS7003;41397;49.972;18.944;2022-09-24T04:11:38;59;51;29
55549;PMS7003;41397;49.972;18.944;2022-09-24T04:14:42;58;50;34
55549;PMS7003;41397;49.972;18.944;2022-09-24T04:20:56;40;34;21
55549;PMS7003;41397;49.972;18.944;2022-09-24T04:24:00;63;60;37
55549;PMS7003;41397;49.972;18.944;2022-09-24T04:27:02;61;52;30
55549;PMS7003;41397;49.972;18.944;2022-09-24T04:30:10;51;42;28
55549;PMS7003;41397;49.972;18.944;2022-09-24T04:33:15;55;42;28
55549;PMS7003;41397;49.972;18.944;2022-09-24T04:36:16;49;41;26
55549;PMS7003;41397;49.972;18.944;2022-09-24T04:39:17;56;46;31
55549;PMS7003;41397;49.972;18.944;2022-09-24T04:42:26;54;47;32
55549;PMS7003;41397;49.972;18.944;2022-09-24T04:45:27;54;46;31
55549;PMS7003;41397;49.972;18.944;2022-09-24T04:48:28;60;46;31
55549;PMS7003;41397;49.972;18.944;2022-09-24T04:51:30;53;44;29
55549;PMS7003;41397;49.972;18.944;2022-09-24T04:54:35;58;45;28
55549;PMS7003;41397;49.972;18.944;2022-09-24T04:57:36;57;43;28
55549;PMS7003;41397;49.972;18.944;2022-09-24T05:00:37;53;43;30
55549;PMS7003;41397;49.972;18.944;2022-09-24T05:03:38;67;59;34
55549;PMS7003;41397;49.972;18.944;2022-09-24T05:06:40;67;61;32
55549;PMS7003;41397;49.972;18.944;2022-09-24T05:09:41;63;53;34
55549;PMS7003;41397;49.972;18.944;2022-09-24T05:12:42;60;55;34
55549;PMS7003;41397;49.972;18.944;2022-09-24T05:15:44;56;48;31
55549;PMS7003;41397;49.972;18.944;2022-09-24T05:18:45;60;48;31
55549;PMS7003;41397;49.972;18.944;2022-09-24T05:21:46;56;46;30
55549;PMS7003;41397;49.972;18.944;2022-09-24T05:24:48;40;34;18
55549;PMS7003;41397;49.972;18.944;2022-09-24T05:27:50;45;35;22
55549;PMS7003;41397;49.972;18.944;2022-09-24T05:30:56;53;42;26
55549;PMS7003;41397;49.972;18.944;2022-09-24T05:33:58;52;39;25
55549;PMS7003;41397;49.972;18.944;2022-09-24T05:37:00;56;48;29
55549;PMS7003;41397;49.972;18.944;2022-09-24T05:40:03;53;43;28
55549;PMS7003;41397;49.972;18.944;2022-09-24T05:43:17;53;44;28
55549;PMS7003;41397;49.972;18.944;2022-09-24T05:46:19;50;41;27
55549;PMS7003;41397;49.972;18.944;2022-09-24T05:49:21;51;42;28
55549;PMS7003;41397;49.972;18.944;2022-09-24T05:52:22;45;35;22
55549;PMS7003;41397;49.972;18.944;2022-09-24T05:55:23;46;38;25
55549;PMS7003;41397;49.972;18.944;2022-09-24T05:58:25;51;41;28
55549;PMS7003;41397;49.972;18.944;2022-09-24T06:01:27;45;38;26
55549;PMS7003;41397;49.972;18.944;2022-09-24T06:04:31;47;38;25
55549;PMS7003;41397;49.972;18.944;2022-09-24T06:07:32;48;38;25
55549;PMS7003;41397;49.972;18.944;2022-09-24T06:10:35;49;39;26
55549;PMS7003;41397;49.972;18.944;2022-09-24T06:13:37;46;38;25
55549;PMS7003;41397;49.972;18.944;2022-09-24T06:16:39;40;34;23
55549;PMS7003;41397;49.972;18.944;2022-09-24T06:19:40;50;42;27
55549;PMS7003;41397;49.972;18.944;2022-09-24T06:22:42;48;40;26
55549;PMS7003;41397;49.972;18.944;2022-09-24T06:25:47;47;39;25
55549;PMS7003;41397;49.972;18.944;2022-09-24T06:28:50;46;38;26
55549;PMS7003;41397;49.972;18.944;2022-09-24T06:31:51;49;41;25
55549;PMS7003;41397;49.972;18.944;2022-09-24T06:34:53;48;40;26
55549;PMS7003;41397;49.972;18.944;2022-09-24T06:37:54;41;35;23
55549;PMS7003;41397;49.972;18.944;2022-09-24T06:40:59;47;38;25
55549;PMS7003;41397;49.972;18.944;2022-09-24T06:44:02;48;40;25
55549;PMS7003;41397;49.972;18.944;2022-09-24T06:47:04;54;45;29
55549;PMS7003;41397;49.972;18.944;2022-09-24T06:50:05;50;41;27
55549;PMS7003;41397;49.972;18.944;2022-09-24T06:53:09;47;38;24
55549;PMS7003;41397;49.972;18.944;2022-09-24T06:56:11;53;42;27
55549;PMS7003;41397;49.972;18.944;2022-09-24T06:59:13;48;40;25
55549;PMS7003;41397;49.972;18.944;2022-09-24T07:02:14;45;36;24
55549;PMS7003;41397;49.972;18.944;2022-09-24T07:05:15;51;42;27
55549;PMS7003;41397;49.972;18.944;2022-09-24T07:08:17;48;40;24
55549;PMS7003;41397;49.972;18.944;2022-09-24T07:11:18;47;38;26
55549;PMS7003;41397;49.972;18.944;2022-09-24T07:14:19;49;40;26
55549;PMS7003;41397;49.972;18.944;2022-09-24T07:17:21;40;35;24
55549;PMS7003;41397;49.972;18.944;2022-09-24T07:20:22;48;36;23
55549;PMS7003;41397;49.972;18.944;2022-09-24T07:23:28;46;38;24
55549;PMS7003;41397;49.972;18.944;2022-09-24T07:26:29;50;37;22
55549;PMS7003;41397;49.972;18.944;2022-09-24T07:29:30;49;39;28
55549;PMS7003;41397;49.972;18.944;2022-09-24T07:32:32;40;34;23
55549;PMS7003;41397;49.972;18.944;2022-09-24T07:35:35;49;40;27
55549;PMS7003;41397;49.972;18.944;2022-09-24T07:38:37;42;36;24
55549;PMS7003;41397;49.972;18.944;2022-09-24T07:41:39;49;40;26
55549;PMS7003;41397;49.972;18.944;2022-09-24T07:44:41;45;38;26
55549;PMS7003;41397;49.972;18.944;2022-09-24T07:47:43;44;37;23
55549;PMS7003;41397;49.972;18.944;2022-09-24T07:50:44;36;31;22
55549;PMS7003;41397;49.972;18.944;2022-09-24T07:53:45;34;30;21
55549;PMS7003;41397;49.972;18.944;2022-09-24T07:56:46;35;30;22
55549;PMS7003;41397;49.972;18.944;2022-09-24T07:59:48;32;29;21
55549;PMS7003;41397;49.972;18.944;2022-09-24T08:02:51;27;26;18
55549;PMS7003;41397;49.972;18.944;2022-09-24T08:05:55;24;23;17
55549;PMS7003;41397;49.972;18.944;2022-09-24T08:09:01;29;27;17
55549;PMS7003;41397;49.972;18.944;2022-09-24T08:12:03;38;31;21
55549;PMS7003;41397;49.972;18.944;2022-09-24T08:15:04;31;28;19
55549;PMS7003;41397;49.972;18.944;2022-09-24T08:18:07;32;27;20
55549;PMS7003;41397;49.972;18.944;2022-09-24T08:21:10;23;23;16
55549;PMS7003;41397;49.972;18.944;2022-09-24T08:24:15;34;30;18
55549;PMS7003;41397;49.972;18.944;2022-09-24T08:27:22;20;20;13
55549;PMS7003;41397;49.972;18.944;2022-09-24T08:30:24;23;22;13
55549;PMS7003;41397;49.972;18.944;2022-09-24T08:33:26;24;22;16
55549;PMS7003;41397;49.972;18.944;2022-09-24T08:36:29;28;26;18
55549;PMS7003;41397;49.972;18.944;2022-09-24T08:39:30;26;25;16
55549;PMS7003;41397;49.972;18.944;2022-09-24T08:45:51;31;28;20
55549;PMS7003;41397;49.972;18.944;2022-09-24T08:49:11;36;28;19
55549;PMS7003;41397;49.972;18.944;2022-09-24T08:55:37;22;22;17
55549;PMS7003;41397;49.972;18.944;2022-09-24T09:02:06;21;21;16
55549;PMS7003;41397;49.972;18.944;2022-09-24T09:05:22;27;26;18
55549;PMS7003;41397;49.972;18.944;2022-09-24T09:27:44;31;28;18
55549;PMS7003;41397;49.972;18.944;2022-09-24T09:34:12;26;25;18
55549;PMS7003;41397;49.972;18.944;2022-09-24T09:43:45;29;27;20
55549;PMS7003;41397;49.972;18.944;2022-09-24T09:46:50;32;29;16
55549;PMS7003;41397;49.972;18.944;2022-09-24T09:50:02;34;30;22
55549;PMS7003;41397;49.972;18.944;2022-09-24T09:56:29;27;26;19
55549;PMS7003;41397;49.972;18.944;2022-09-24T09:59:34;34;30;20
55549;PMS7003;41397;49.972;18.944;2022-09-24T10:02:36;35;31;22
55549;PMS7003;41397;49.972;18.944;2022-09-24T10:05:42;31;28;20
55549;PMS7003;41397;49.972;18.944;2022-09-24T10:08:52;29;28;20
55549;PMS7003;41397;49.972;18.944;2022-09-24T10:12:04;31;26;18
55549;PMS7003;41397;49.972;18.944;2022-09-24T10:15:26;30;27;17
55549;PMS7003;41397;49.972;18.944;2022-09-24T10:21:33;21;21;14
55549;PMS7003;41397;49.972;18.944;2022-09-24T10:24:39;20;20;14
55549;PMS7003;41397;49.972;18.944;2022-09-24T10:27:43;13;13;11
55549;PMS7003;41397;49.972;18.944;2022-09-24T10:33:57;25;25;18
55549;PMS7003;41397;49.972;18.944;2022-09-24T10:37:01;17;17;14
55549;PMS7003;41397;49.972;18.944;2022-09-24T10:40:12;20;20;15
55549;PMS7003;41397;49.972;18.944;2022-09-24T10:43:20;12;12;5
55549;PMS7003;41397;49.972;18.944;2022-09-24T10:56:02;13;13;10
55549;PMS7003;41397;49.972;18.944;2022-09-24T11:05:44;5;5;4
55549;PMS7003;41397;49.972;18.944;2022-09-24T11:25:12;7;7;6
55549;PMS7003;41397;49.972;18.944;2022-09-24T11:41:25;7;7;4
55549;PMS7003;41397;49.972;18.944;2022-09-24T11:47:59;2;2;1
55549;PMS7003;41397;49.972;18.944;2022-09-24T11:57:28;9;9;8
55549;PMS7003;41397;49.972;18.944;2022-09-24T12:00:40;7;7;5
55549;PMS7003;41397;49.972;18.944;2022-09-24T12:07:11;9;9;7
55549;PMS7003;41397;49.972;18.944;2022-09-24T12:13:36;7;7;6
55549;PMS7003;41397;49.972;18.944;2022-09-24T12:16:42;3;3;3
55549;PMS7003;41397;49.972;18.944;2022-09-24T12:23:02;5;5;4
55549;PMS7003;41397;49.972;18.944;2022-09-24T12:26:08;3;3;3
55549;PMS7003;41397;49.972;18.944;2022-09-24T12:36:00;9;9;6
55549;PMS7003;41397;49.972;18.944;2022-09-24T12:39:11;9;9;8
55549;PMS7003;41397;49.972;18.944;2022-09-24T12:42:19;6;6;6
55549;PMS7003;41397;49.972;18.944;2022-09-24T12:45:22;7;7;5
55549;PMS7003;41397;49.972;18.944;2022-09-24T12:48:26;8;8;8
55549;PMS7003;41397;49.972;18.944;2022-09-24T12:54:39;8;8;7
55549;PMS7003;41397;49.972;18.944;2022-09-24T12:57:48;5;5;5
55549;PMS7003;41397;49.972;18.944;2022-09-24T13:10:35;8;8;7
55549;PMS7003;41397;49.972;18.944;2022-09-24T13:13:37;5;5;4
55549;PMS7003;41397;49.972;18.944;2022-09-24T13:16:45;11;11;8
55549;PMS7003;41397;49.972;18.944;2022-09-24T13:19:54;10;10;9
55549;PMS7003;41397;49.972;18.944;2022-09-24T13:29:27;10;10;7
55549;PMS7003;41397;49.972;18.944;2022-09-24T13:35:54;7;7;5
55549;PMS7003;41397;49.972;18.944;2022-09-24T13:42:25;11;11;10
55549;PMS7003;41397;49.972;18.944;2022-09-24T13:45:32;7;7;5
55549;PMS7003;41397;49.972;18.944;2022-09-24T13:48:37;10;10;8
55549;PMS7003;41397;49.972;18.944;2022-09-24T13:51:44;8;8;6
55549;PMS7003;41397;49.972;18.944;2022-09-24T13:54:51;9;9;5
55549;PMS7003;41397;49.972;18.944;2022-09-24T13:58:00;7;7;5
55549;PMS7003;41397;49.972;18.944;2022-09-24T14:01:02;13;13;9
55549;PMS7003;41397;49.972;18.944;2022-09-24T14:04:13;10;10;8
55549;PMS7003;41397;49.972;18.944;2022-09-24T14:07:22;8;8;7
55549;PMS7003;41397;49.972;18.944;2022-09-24T14:10:25;9;9;7
55549;PMS7003;41397;49.972;18.944;2022-09-24T14:13:26;7;7;6
55549;PMS7003;41397;49.972;18.944;2022-09-24T14:16:29;11;11;9
55549;PMS7003;41397;49.972;18.944;2022-09-24T14:19:31;11;11;9
55549;PMS7003;41397;49.972;18.944;2022-09-24T14:22:36;11;11;11
55549;PMS7003;41397;49.972;18.944;2022-09-24T14:25:41;10;10;7
55549;PMS7003;41397;49.972;18.944;2022-09-24T14:28:45;11;11;9
55549;PMS7003;41397;49.972;18.944;2022-09-24T14:31:49;9;9;6
55549;PMS7003;41397;49.972;18.944;2022-09-24T14:35:02;10;10;7
55549;PMS7003;41397;49.972;18.944;2022-09-24T14:38:17;9;9;7
55549;PMS7003;41397;49.972;18.944;2022-09-24T14:41:24;13;13;11
55549;PMS7003;41397;49.972;18.944;2022-09-24T14:44:30;11;11;7
55549;PMS7003;41397;49.972;18.944;2022-09-24T14:47:32;13;13;9
55549;PMS7003;41397;49.972;18.944;2022-09-24T14:50:38;8;8;7
55549;PMS7003;41397;49.972;18.944;2022-09-24T14:53:42;12;12;10
55549;PMS7003;41397;49.972;18.944;2022-09-24T14:56:44;11;11;8
55549;PMS7003;41397;49.972;18.944;2022-09-24T14:59:45;10;10;8
55549;PMS7003;41397;49.972;18.944;2022-09-24T15:02:51;15;15;13
55549;PMS7003;41397;49.972;18.944;2022-09-24T15:06:03;12;12;10
55549;PMS7003;41397;49.972;18.944;2022-09-24T15:09:18;11;11;9
55549;PMS7003;41397;49.972;18.944;2022-09-24T15:12:23;10;10;9
55549;PMS7003;41397;49.972;18.944;2022-09-24T15:15:33;8;8;7
55549;PMS7003;41397;49.972;18.944;2022-09-24T15:18:35;7;7;7
55549;PMS7003;41397;49.972;18.944;2022-09-24T15:21:36;10;10;6
55549;PMS7003;41397;49.972;18.944;2022-09-24T15:24:37;14;14;9
55549;PMS7003;41397;49.972;18.944;2022-09-24T15:27:39;8;8;6
55549;PMS7003;41397;49.972;18.944;2022-09-24T15:30:44;18;18;11
55549;PMS7003;41397;49.972;18.944;2022-09-24T15:33:45;14;14;10
55549;PMS7003;41397;49.972;18.944;2022-09-24T15:36:48;15;15;11
55549;PMS7003;41397;49.972;18.944;2022-09-24T15:39:55;16;16;12
55549;PMS7003;41397;49.972;18.944;2022-09-24T15:42:59;14;14;12
55549;PMS7003;41397;49.972;18.944;2022-09-24T15:46:00;19;19;17
55549;PMS7003;41397;49.972;18.944;2022-09-24T15:49:01;22;22;15
55549;PMS7003;41397;49.972;18.944;2022-09-24T15:52:06;26;26;20
55549;PMS7003;41397;49.972;18.944;2022-09-24T15:55:14;26;25;18
55549;PMS7003;41397;49.972;18.944;2022-09-24T15:58:18;32;30;22
55549;PMS7003;41397;49.972;18.944;2022-09-24T16:01:21;33;30;22
55549;PMS7003;41397;49.972;18.944;2022-09-24T16:04:22;30;28;19
55549;PMS7003;41397;49.972;18.944;2022-09-24T16:07:24;33;30;21
55549;PMS7003;41397;49.972;18.944;2022-09-24T16:10:26;34;31;20
55549;PMS7003;41397;49.972;18.944;2022-09-24T16:13:27;31;28;19
55549;PMS7003;41397;49.972;18.944;2022-09-24T16:16:29;31;29;20
55549;PMS7003;41397;49.972;18.944;2022-09-24T16:19:30;33;31;22
55549;PMS7003;41397;49.972;18.944;2022-09-24T16:22:34;37;33;21
55549;PMS7003;41397;49.972;18.944;2022-09-24T16:25:35;34;32;20
55549;PMS7003;41397;49.972;18.944;2022-09-24T16:28:36;25;24;18
55549;PMS7003;41397;49.972;18.944;2022-09-24T16:31:38;31;28;21
55549;PMS7003;41397;49.972;18.944;2022-09-24T16:34:42;30;28;20
55549;PMS7003;41397;49.972;18.944;2022-09-24T16:37:43;40;35;23
55549;PMS7003;41397;49.972;18.944;2022-09-24T16:40:44;35;31;20
55549;PMS7003;41397;49.972;18.944;2022-09-24T16:43:45;36;32;21
55549;PMS7003;41397;49.972;18.944;2022-09-24T16:46:49;34;30;21
55549;PMS7003;41397;49.972;18.944;2022-09-24T16:49:51;36;32;19
55549;PMS7003;41397;49.972;18.944;2022-09-24T16:52:52;33;30;20
55549;PMS7003;41397;49.972;18.944;2022-09-24T16:59:05;55;43;28
55549;PMS7003;41397;49.972;18.944;2022-09-24T17:02:06;53;41;28
55549;PMS7003;41397;49.972;18.944;2022-09-24T17:05:10;53;43;26
55549;PMS7003;41397;49.972;18.944;2022-09-24T17:08:11;49;38;23
55549;PMS7003;41397;49.972;18.944;2022-09-24T17:11:13;55;45;26
55549;PMS7003;41397;49.972;18.944;2022-09-24T17:14:14;45;39;26
55549;PMS7003;41397;49.972;18.944;2022-09-24T17:17:17;48;40;26
55549;PMS7003;41397;49.972;18.944;2022-09-24T17:20:19;47;40;25
55549;PMS7003;41397;49.972;18.944;2022-09-24T17:23:21;63;55;31
55549;PMS7003;41397;49.972;18.944;2022-09-24T17:26:22;66;52;33
55549;PMS7003;41397;49.972;18.944;2022-09-24T17:29:24;63;55;34
55549;PMS7003;41397;49.972;18.944;2022-09-24T17:32:26;63;54;35
55549;PMS7003;41397;49.972;18.944;2022-09-24T17:35:27;64;58;31
55549;PMS7003;41397;49.972;18.944;2022-09-24T17:38:29;66;58;35
55549;PMS7003;41397;49.972;18.944;2022-09-24T17:41:31;66;59;35
55549;PMS7003;41397;49.972;18.944;2022-09-24T17:44:33;67;60;39
55549;PMS7003;41397;49.972;18.944;2022-09-24T17:47:35;48;40;28
55549;PMS7003;41397;49.972;18.944;2022-09-24T17:50:55;72;67;39
55549;PMS7003;41397;49.972;18.944;2022-09-24T17:54:00;70;64;44
55549;PMS7003;41397;49.972;18.944;2022-09-24T17:57:03;64;59;40
55549;PMS7003;41397;49.972;18.944;2022-09-24T18:00:04;60;50;29
55549;PMS7003;41397;49.972;18.944;2022-09-24T18:03:07;67;62;38
55549;PMS7003;41397;49.972;18.944;2022-09-24T18:06:09;64;57;33
55549;PMS7003;41397;49.972;18.944;2022-09-24T18:09:12;73;63;38
55549;PMS7003;41397;49.972;18.944;2022-09-24T18:12:15;66;62;39
55549;PMS7003;41397;49.972;18.944;2022-09-24T18:15:16;66;61;36
55549;PMS7003;41397;49.972;18.944;2022-09-24T18:18:17;65;61;39
55549;PMS7003;41397;49.972;18.944;2022-09-24T18:21:20;60;52;38
55549;PMS7003;41397;49.972;18.944;2022-09-24T18:24:23;65;56;35
55549;PMS7003;41397;49.972;18.944;2022-09-24T18:27:24;67;57;35
55549;PMS7003;41397;49.972;18.944;2022-09-24T18:30:25;59;50;31
55549;PMS7003;41397;49.972;18.944;2022-09-24T18:33:27;58;50;33
55549;PMS7003;41397;49.972;18.944;2022-09-24T18:36:28;66;57;34
55549;PMS7003;41397;49.972;18.944;2022-09-24T18:39:30;67;58;39
55549;PMS7003;41397;49.972;18.944;2022-09-24T18:42:31;74;73;40
55549;PMS7003;41397;49.972;18.944;2022-09-24T18:45:36;65;61;38
55549;PMS7003;41397;49.972;18.944;2022-09-24T18:48:37;64;58;36
55549;PMS7003;41397;49.972;18.944;2022-09-24T18:51:40;68;63;37
55549;PMS7003;41397;49.972;18.944;2022-09-24T18:54:42;65;55;35
55549;PMS7003;41397;49.972;18.944;2022-09-24T18:57:43;75;75;43
55549;PMS7003;41397;49.972;18.944;2022-09-24T19:00:44;84;79;43
55549;PMS7003;41397;49.972;18.944;2022-09-24T19:03:54;66;60;34
55549;PMS7003;41397;49.972;18.944;2022-09-24T19:06:59;60;52;33
55549;PMS7003;41397;49.972;18.944;2022-09-24T19:10:00;71;66;37
55549;PMS7003;41397;49.972;18.944;2022-09-24T19:13:02;65;62;35
55549;PMS7003;41397;49.972;18.944;2022-09-24T19:16:04;63;56;37
55549;PMS7003;41397;49.972;18.944;2022-09-24T19:19:09;64;60;37
55549;PMS7003;41397;49.972;18.944;2022-09-24T19:22:11;70;66;36
55549;PMS7003;41397;49.972;18.944;2022-09-24T19:25:12;70;66;41
55549;PMS7003;41397;49.972;18.944;2022-09-24T19:28:14;70;62;38
55549;PMS7003;41397;49.972;18.944;2022-09-24T19:31:19;56;44;26
55549;PMS7003;41397;49.972;18.944;2022-09-24T19:34:23;62;53;35
55549;PMS7003;41397;49.972;18.944;2022-09-24T19:37:24;56;46;32
55549;PMS7003;41397;49.972;18.944;2022-09-24T19:40:25;54;43;28
55549;PMS7003;41397;49.972;18.944;2022-09-24T19:43:27;48;40;26
55549;PMS7003;41397;49.972;18.944;2022-09-24T19:46:33;49;40;26
55549;PMS7003;41397;49.972;18.944;2022-09-24T19:49:34;54;45;31
55549;PMS7003;41397;49.972;18.944;2022-09-24T19:52:36;55;45;28
55549;PMS7003;41397;49.972;18.944;2022-09-24T19:55:37;60;50;30
55549;PMS7003;41397;49.972;18.944;2022-09-24T19:58:38;55;46;29
55549;PMS7003;41397;49.972;18.944;2022-09-24T20:01:39;51;42;29
55549;PMS7003;41397;49.972;18.944;2022-09-24T20:04:41;52;42;28
55549;PMS7003;41397;49.972;18.944;2022-09-24T20:07:43;54;47;30
55549;PMS7003;41397;49.972;18.944;2022-09-24T20:10:45;67;65;44
55549;PMS7003;41397;49.972;18.944;2022-09-24T20:13:47;51;42;29
55549;PMS7003;41397;49.972;18.944;2022-09-24T20:16:50;48;41;24
55549;PMS7003;41397;49.972;18.944;2022-09-24T20:19:51;46;39;26
55549;PMS7003;41397;49.972;18.944;2022-09-24T20:22:52;52;43;27
55549;PMS7003;41397;49.972;18.944;2022-09-24T20:25:53;52;43;27
55549;PMS7003;41397;49.972;18.944;2022-09-24T20:29:07;52;41;28
55549;PMS7003;41397;49.972;18.944;2022-09-24T20:32:10;59;52;33
55549;PMS7003;41397;49.972;18.944;2022-09-24T20:35:16;58;52;31
55549;PMS7003;41397;49.972;18.944;2022-09-24T20:38:17;62;57;36
55549;PMS7003;41397;49.972;18.944;2022-09-24T20:41:19;59;50;36
55549;PMS7003;41397;49.972;18.944;2022-09-24T20:44:22;61;54;33
55549;PMS7003;41397;49.972;18.944;2022-09-24T20:47:25;72;64;37
55549;PMS7003;41397;49.972;18.944;2022-09-24T20:50:32;62;58;38
55549;PMS7003;41397;49.972;18.944;2022-09-24T20:53:34;65;62;37
55549;PMS7003;41397;49.972;18.944;2022-09-24T20:56:35;61;54;37
55549;PMS7003;41397;49.972;18.944;2022-09-24T20:59:36;59;52;34
55549;PMS7003;41397;49.972;18.944;2022-09-24T21:02:38;59;52;34
55549;PMS7003;41397;49.972;18.944;2022-09-24T21:05:41;73;63;40
55549;PMS7003;41397;49.972;18.944;2022-09-24T21:08:44;64;59;35
55549;PMS7003;41397;49.972;18.944;2022-09-24T21:11:46;69;64;39
55549;PMS7003;41397;49.972;18.944;2022-09-24T21:14:50;75;65;40
55549;PMS7003;41397;49.972;18.944;2022-09-24T21:17:52;84;76;40
55549;PMS7003;41397;49.972;18.944;2022-09-24T21:20:53;185;159;92
55549;PMS7003;41397;49.972;18.944;2022-09-24T21:23:55;141;126;76
55549;PMS7003;41397;49.972;18.944;2022-09-24T21:26:58;92;85;52
55549;PMS7003;41397;49.972;18.944;2022-09-24T21:30:00;90;80;47
55549;PMS7003;41397;49.972;18.944;2022-09-24T21:33:01;85;75;45
55549;PMS7003;41397;49.972;18.944;2022-09-24T21:36:04;73;69;45
55549;PMS7003;41397;49.972;18.944;2022-09-24T21:39:17;75;71;47
55549;PMS7003;41397;49.972;18.944;2022-09-24T21:42:18;84;73;43
55549;PMS7003;41397;49.972;18.944;2022-09-24T21:45:19;78;76;45
55549;PMS7003;41397;49.972;18.944;2022-09-24T21:48:20;76;68;44
55549;PMS7003;41397;49.972;18.944;2022-09-24T21:51:26;76;68;48
55549;PMS7003;41397;49.972;18.944;2022-09-24T21:54:29;75;71;44
55549;PMS7003;41397;49.972;18.944;2022-09-24T21:57:33;80;77;48
55549;PMS7003;41397;49.972;18.944;2022-09-24T22:00:34;87;86;49
55549;PMS7003;41397;49.972;18.944;2022-09-24T22:03:35;79;78;51
55549;PMS7003;41397;49.972;18.944;2022-09-24T22:06:37;82;76;51
55549;PMS7003;41397;49.972;18.944;2022-09-24T22:09:38;96;92;52
55549;PMS7003;41397;49.972;18.944;2022-09-24T22:12:40;93;91;58